Time;durP1;ratioP1;P1;durP2;ratioP2;P2;SDS_P1;SDS_P2;PMS_P1;PMS_P2;Temp;Humidity;BMP_temperature;BMP_pressure;BME280_temperature;BME280_humidity;BME280_pressure;Samples;Min_cycle;Max_cycle;Signal;HPM_P1;HPM_P2
2024/03/05 00:02:04;;;;;;;23.00;17.63;;;4.80;99.90;;;;;;6276260;22;40524;-79
2024/03/05 00:04:32;;;;;;;27.07;19.53;;;4.70;99.90;;;;;;6277701;22;38965;-79
2024/03/05 00:06:58;;;;;;;23.27;17.80;;;4.70;99.90;;;;;;6277950;22;37423;-79
2024/03/05 00:09:25;;;;;;;28.70;18.53;;;4.70;99.90;;;;;;6278160;22;39356;-78
2024/03/05 00:11:51;;;;;;;27.10;19.30;;;4.70;99.90;;;;;;6276308;22;39542;-79
2024/03/05 00:14:19;;;;;;;24.93;18.40;;;4.70;99.90;;;;;;6277220;22;38547;-79
2024/03/05 00:16:47;;;;;;;28.73;20.67;;;4.60;99.90;;;;;;6276252;22;38867;-79
2024/03/05 00:19:13;;;;;;;34.27;22.03;;;4.60;99.90;;;;;;6276313;22;38524;-79
2024/03/05 00:21:39;;;;;;;30.53;21.30;;;4.60;99.90;;;;;;6276565;22;38513;-81
2024/03/05 00:24:06;;;;;;;30.60;21.43;;;4.70;99.90;;;;;;6274224;22;39680;-80
2024/03/05 00:26:36;;;;;;;34.37;24.03;;;4.70;99.90;;;;;;6278477;22;38206;-79
2024/03/05 00:29:03;;;;;;;32.73;22.57;;;4.70;99.90;;;;;;6276871;22;37540;-79
2024/03/05 00:31:29;;;;;;;32.37;21.80;;;4.70;99.90;;;;;;6273703;22;39229;-79
2024/03/05 00:33:55;;;;;;;34.70;22.23;;;4.60;99.90;;;;;;6274900;22;39046;-79
2024/03/05 00:36:25;;;;;;;36.27;23.57;;;4.60;99.90;;;;;;6276730;22;38535;-80
2024/03/05 00:38:51;;;;;;;31.80;22.90;;;4.60;99.90;;;;;;6277874;22;38246;-80
2024/03/05 00:41:18;;;;;;;31.00;22.07;;;4.50;99.90;;;;;;6275485;22;39262;-78
2024/03/05 00:43:45;;;;;;;36.77;23.43;;;4.50;99.90;;;;;;6276829;22;39941;-79
2024/03/05 00:46:11;;;;;;;30.77;21.10;;;4.40;99.90;;;;;;6275021;22;39031;-79
2024/03/05 00:48:37;;;;;;;32.67;21.87;;;4.30;99.90;;;;;;6278133;22;37539;-80
2024/03/05 00:51:03;;;;;;;32.97;22.30;;;4.30;99.90;;;;;;6278063;22;38958;-79
2024/03/05 00:53:30;;;;;;;34.33;22.43;;;4.30;99.90;;;;;;6276567;22;38558;-79
2024/03/05 00:55:56;;;;;;;33.57;21.53;;;4.20;99.90;;;;;;6278164;22;38908;-79
2024/03/05 00:58:22;;;;;;;32.50;22.60;;;4.20;99.90;;;;;;6275069;22;39433;-79
2024/03/05 01:00:50;;;;;;;30.97;22.43;;;4.20;99.90;;;;;;6278628;22;39297;-79
2024/03/05 01:03:16;;;;;;;36.83;23.90;;;4.20;99.90;;;;;;6275367;22;37490;-79
2024/03/05 01:05:42;;;;;;;35.57;24.77;;;4.20;99.90;;;;;;6277000;22;38593;-79
2024/03/05 01:08:08;;;;;;;34.93;24.23;;;4.20;99.90;;;;;;6273979;22;39032;-78
2024/03/05 01:10:34;;;;;;;38.53;25.77;;;4.10;99.90;;;;;;6277869;22;38900;-79
2024/03/05 01:13:00;;;;;;;39.10;25.13;;;4.10;99.90;;;;;;6278440;22;39105;-77
2024/03/05 01:15:27;;;;;;;38.33;25.63;;;4.00;99.90;;;;;;6274503;22;40594;-78
2024/03/05 01:17:53;;;;;;;37.13;24.83;;;4.00;99.90;;;;;;6277810;22;37693;-77
2024/03/05 01:20:20;;;;;;;41.30;27.00;;;4.00;99.90;;;;;;6270697;22;37811;-79
2024/03/05 01:22:47;;;;;;;37.03;25.30;;;4.00;99.90;;;;;;6273766;22;38988;-80
2024/03/05 01:25:16;;;;;;;39.63;26.97;;;4.00;99.90;;;;;;6269587;22;37050;-78
2024/03/05 01:27:42;;;;;;;50.20;28.53;;;4.10;99.90;;;;;;6274975;22;38326;-79
2024/03/05 01:30:11;;;;;;;45.20;28.07;;;4.20;99.90;;;;;;6273258;22;37413;-79
2024/03/05 01:32:40;;;;;;;46.57;28.80;;;4.30;99.90;;;;;;6275714;22;39118;-79
2024/03/05 01:35:11;;;;;;;46.70;30.50;;;4.30;99.90;;;;;;6278000;22;37318;-78
2024/03/05 01:37:38;;;;;;;55.00;30.97;;;4.30;99.90;;;;;;6279347;22;36562;-77
2024/03/05 01:40:05;;;;;;;45.10;28.10;;;4.40;99.90;;;;;;6277602;22;39660;-78
2024/03/05 01:42:31;;;;;;;49.73;30.73;;;4.30;99.90;;;;;;6275512;22;38883;-79
2024/03/05 01:44:58;;;;;;;47.80;31.33;;;4.30;99.90;;;;;;6277735;22;38287;-80
2024/03/05 01:47:27;;;;;;;51.37;30.43;;;4.30;99.90;;;;;;6279182;22;37708;-78
2024/03/05 01:49:54;;;;;;;49.40;29.00;;;4.20;99.90;;;;;;6277792;22;40462;-80
2024/03/05 01:52:22;;;;;;;49.80;30.50;;;4.20;99.90;;;;;;6278256;22;38689;-77
2024/03/05 01:54:50;;;;;;;47.40;28.73;;;4.10;99.90;;;;;;6279820;22;38073;-78
2024/03/05 01:57:17;;;;;;;53.57;32.77;;;4.20;99.90;;;;;;6277050;22;38973;-79
2024/03/05 01:59:43;;;;;;;52.80;32.40;;;4.30;99.90;;;;;;6280688;22;39130;-79
2024/03/05 02:04:46;;;;;;;56.37;33.97;;;4.20;99.90;;;;;;6213696;22;20028;-79
2024/03/05 02:07:13;;;;;;;52.60;32.10;;;4.20;99.90;;;;;;6218509;22;36991;-78
2024/03/05 02:09:39;;;;;;;54.87;32.77;;;4.10;99.90;;;;;;6217317;23;39805;-79
2024/03/05 02:12:05;;;;;;;57.30;34.50;;;4.10;99.90;;;;;;6217932;22;39315;-79
2024/03/05 02:14:32;;;;;;;61.63;34.57;;;4.10;99.90;;;;;;6215741;23;39110;-79
2024/03/05 02:17:00;;;;;;;56.93;32.97;;;4.10;99.90;;;;;;6216388;23;38387;-79
2024/03/05 02:19:26;;;;;;;56.17;32.63;;;4.10;99.90;;;;;;6214086;22;37964;-78
2024/03/05 02:22:02;;;;;;;67.57;35.97;;;4.10;99.90;;;;;;6215604;22;37084;-79
2024/03/05 02:24:29;;;;;;;61.93;34.10;;;4.10;99.90;;;;;;6220959;22;49029;-79
2024/03/05 02:26:56;;;;;;;58.83;34.03;;;4.10;99.90;;;;;;6220948;22;36310;-81
2024/03/05 02:29:23;;;;;;;76.43;37.27;;;4.10;99.90;;;;;;6219363;22;38523;-79
2024/03/05 02:31:51;;;;;;;52.60;33.30;;;4.10;99.90;;;;;;6243994;22;39049;-79
2024/03/05 02:34:17;;;;;;;64.03;37.57;;;4.10;99.90;;;;;;6219546;22;38342;-79
2024/03/05 02:36:43;;;;;;;55.87;33.03;;;4.10;99.90;;;;;;6242943;22;36291;-78
2024/03/05 02:39:10;;;;;;;65.10;35.40;;;4.10;99.90;;;;;;6217122;22;39121;-79
2024/03/05 02:41:36;;;;;;;63.30;35.20;;;4.10;99.90;;;;;;6217626;22;39350;-79
2024/03/05 02:44:03;;;;;;;57.90;34.23;;;4.10;99.90;;;;;;6218341;22;38797;-80
2024/03/05 02:46:30;;;;;;;60.00;33.83;;;4.20;99.90;;;;;;6216391;22;38265;-80
2024/03/05 02:48:56;;;;;;;70.67;37.70;;;4.10;99.90;;;;;;6218071;22;40453;-79
2024/03/05 02:51:22;;;;;;;78.47;37.77;;;4.20;99.90;;;;;;6218058;22;38811;-78
2024/03/05 02:53:48;;;;;;;70.60;37.13;;;4.20;99.90;;;;;;6218032;22;39700;-79
2024/03/05 02:56:15;;;;;;;65.30;36.17;;;4.10;99.90;;;;;;6215428;22;37685;-78
2024/03/05 02:58:41;;;;;;;64.90;35.03;;;4.10;99.90;;;;;;6220042;22;39267;-80
2024/03/05 03:01:08;;;;;;;66.43;36.00;;;4.10;99.90;;;;;;6218347;22;39482;-80
2024/03/05 03:03:35;;;;;;;59.43;33.37;;;4.00;99.90;;;;;;6216665;22;38371;-80
2024/03/05 03:06:05;;;;;;;59.37;33.93;;;3.90;99.90;;;;;;6215857;22;38056;-79
2024/03/05 03:08:33;;;;;;;58.83;34.40;;;3.90;99.90;;;;;;6217013;22;49664;-79
2024/03/05 03:10:59;;;;;;;74.60;38.53;;;3.90;99.90;;;;;;6219302;22;38830;-79
2024/03/05 03:13:25;;;;;;;70.03;36.57;;;3.90;99.90;;;;;;6218789;22;38596;-79
2024/03/05 03:15:51;;;;;;;65.63;37.20;;;3.90;99.90;;;;;;6220667;22;38692;-80
2024/03/05 03:18:18;;;;;;;62.83;34.87;;;3.80;99.90;;;;;;6220450;22;38991;-81
2024/03/05 03:20:44;;;;;;;64.80;36.37;;;3.90;99.90;;;;;;6243022;22;37625;-79
2024/03/05 03:23:10;;;;;;;59.53;33.73;;;3.90;99.90;;;;;;6215709;22;40176;-79
2024/03/05 03:25:36;;;;;;;61.43;34.43;;;3.80;99.90;;;;;;6214425;22;37785;-79
2024/03/05 03:28:03;;;;;;;57.90;33.67;;;3.80;99.90;;;;;;6214543;22;38881;-79
2024/03/05 03:30:29;;;;;;;64.60;35.17;;;3.80;99.90;;;;;;6216062;22;38332;-81
2024/03/05 03:32:55;;;;;;;66.93;36.57;;;3.80;99.90;;;;;;6216904;22;38880;-79
2024/03/05 03:35:23;;;;;;;58.80;35.00;;;3.70;99.90;;;;;;6214386;22;38052;-79
2024/03/05 03:37:49;;;;;;;65.27;35.83;;;3.80;99.90;;;;;;6242055;22;39792;-80
2024/03/05 03:40:21;;;;;;;67.23;35.77;;;3.80;99.90;;;;;;6240070;22;37221;-79
2024/03/05 03:42:49;;;;;;;63.15;33.55;;;3.80;99.90;;;;;;6214446;22;39661;-79
2024/03/05 03:45:16;;;;;;;70.13;37.00;;;3.80;99.90;;;;;;6212607;22;39643;-81
2024/03/05 03:47:42;;;;;;;64.83;35.43;;;3.80;99.90;;;;;;6217219;22;39352;-79
2024/03/05 03:50:09;;;;;;;57.17;33.50;;;3.80;99.90;;;;;;6239718;22;39203;-79
2024/03/05 03:52:38;;;;;;;62.87;34.83;;;3.80;99.90;;;;;;6213766;22;37283;-79
2024/03/05 03:55:05;;;;;;;63.20;34.70;;;3.80;99.90;;;;;;6216071;22;37786;-80
2024/03/05 03:57:32;;;;;;;72.33;36.33;;;3.90;99.90;;;;;;6221086;22;47236;-79
2024/03/05 03:59:59;;;;;;;66.67;35.10;;;3.90;99.90;;;;;;6223353;22;38470;-80
2024/03/05 04:02:26;;;;;;;67.00;37.13;;;4.00;99.90;;;;;;6247383;22;39568;-80
2024/03/05 04:04:52;;;;;;;70.50;37.03;;;4.00;99.90;;;;;;6246956;22;39544;-80
2024/03/05 04:07:19;;;;;;;60.13;33.87;;;4.00;99.90;;;;;;6229752;22;40797;-81
2024/03/05 04:09:45;;;;;;;60.57;34.73;;;4.10;99.90;;;;;;6261555;22;38233;-80
2024/03/05 04:12:14;;;;;;;69.00;37.30;;;4.10;99.90;;;;;;6233484;22;37921;-80
2024/03/05 04:14:40;;;;;;;64.20;34.30;;;4.20;99.90;;;;;;6233771;22;36637;-82
2024/03/05 04:17:07;;;;;;;58.77;34.37;;;4.20;99.90;;;;;;6257671;22;37429;-82
2024/03/05 04:19:34;;;;;;;63.53;35.80;;;4.20;99.90;;;;;;6235301;22;38603;-79
2024/03/05 04:22:02;;;;;;;64.73;34.60;;;4.30;99.90;;;;;;6232971;22;39205;-82
2024/03/05 04:24:28;;;;;;;59.60;35.17;;;4.30;99.90;;;;;;6227181;22;47643;-80
2024/03/05 04:27:02;;;;;;;58.03;32.83;;;4.30;99.90;;;;;;6228338;22;39151;-80
2024/03/05 04:29:33;;;;;;;68.83;36.70;;;4.30;99.90;;;;;;6230547;22;47433;-80
2024/03/05 04:32:13;;;;;;;65.03;34.63;;;4.40;99.90;;;;;;6233213;22;38048;-79
2024/03/05 04:34:42;;;;;;;69.97;35.87;;;4.40;99.90;;;;;;6216141;22;48872;-80
2024/03/05 04:37:10;;;;;;;68.53;36.30;;;4.50;99.90;;;;;;6227107;22;39226;-79
2024/03/05 04:39:38;;;;;;;83.63;39.90;;;4.50;99.90;;;;;;6225676;22;38729;-80
2024/03/05 04:42:08;;;;;;;67.00;38.27;;;4.60;99.90;;;;;;6220974;22;39190;-79
2024/03/05 04:44:35;;;;;;;63.47;36.33;;;4.60;99.90;;;;;;6218586;22;20370;-79
2024/03/05 04:47:03;;;;;;;66.00;35.73;;;4.60;99.90;;;;;;6215317;22;40723;-79
2024/03/05 04:49:30;;;;;;;77.20;38.97;;;4.60;99.90;;;;;;6218624;22;38118;-79
2024/03/05 04:51:56;;;;;;;76.07;39.93;;;4.70;99.90;;;;;;6219097;22;36895;-78
2024/03/05 04:54:22;;;;;;;70.47;40.17;;;4.80;99.90;;;;;;6219953;22;37564;-79
2024/03/05 04:56:48;;;;;;;84.43;42.33;;;4.90;99.90;;;;;;6242350;22;38961;-79
2024/03/05 04:59:16;;;;;;;72.30;39.07;;;4.90;99.90;;;;;;6214319;22;38649;-79
2024/03/05 05:01:44;;;;;;;81.20;42.93;;;5.00;99.90;;;;;;6216706;22;38536;-79
2024/03/05 05:04:10;;;;;;;88.07;45.53;;;5.00;99.90;;;;;;6241444;22;37561;-79
2024/03/05 05:06:36;;;;;;;102.27;47.37;;;5.10;99.90;;;;;;6218133;22;38679;-79
2024/03/05 05:09:05;;;;;;;101.67;46.67;;;5.20;99.90;;;;;;6244518;22;39053;-78
2024/03/05 05:11:32;;;;;;;101.73;47.17;;;5.20;99.90;;;;;;6247543;22;38852;-79
2024/03/05 05:13:58;;;;;;;94.23;47.47;;;5.30;99.90;;;;;;6220310;22;37127;-79
2024/03/05 05:16:26;;;;;;;96.80;48.60;;;5.40;99.90;;;;;;6219475;22;38807;-79
2024/03/05 05:18:52;;;;;;;85.77;44.07;;;5.50;99.90;;;;;;6221066;22;38968;-79
2024/03/05 05:21:19;;;;;;;99.40;48.50;;;5.50;99.90;;;;;;6219421;22;40507;-79
2024/03/05 05:23:45;;;;;;;93.17;47.50;;;5.60;99.90;;;;;;6223430;22;37500;-81
2024/03/05 05:26:12;;;;;;;126.60;54.50;;;5.60;99.90;;;;;;6247676;22;37553;-79
2024/03/05 05:28:41;;;;;;;97.53;48.83;;;5.60;99.90;;;;;;6223270;22;38749;-80
2024/03/05 05:31:26;;;;;;;95.20;49.13;;;5.70;99.90;;;;;;6219616;22;37877;-80
2024/03/05 05:33:53;;;;;;;99.73;47.97;;;5.70;99.90;;;;;;6249498;22;37176;-79
2024/03/05 05:36:19;;;;;;;101.10;50.60;;;5.80;99.90;;;;;;6220320;22;39795;-79
2024/03/05 05:38:45;;;;;;;95.30;48.87;;;5.80;99.90;;;;;;6222383;22;37394;-79
2024/03/05 05:41:12;;;;;;;98.80;49.70;;;5.80;99.90;;;;;;6218293;22;39243;-78
2024/03/05 05:43:38;;;;;;;97.00;46.97;;;5.90;99.90;;;;;;6243447;22;39037;-78
2024/03/05 05:46:04;;;;;;;90.57;47.17;;;5.90;99.90;;;;;;6220591;22;40687;-79
2024/03/05 05:48:31;;;;;;;96.73;49.10;;;6.00;99.90;;;;;;6221784;22;38465;-79
2024/03/05 05:50:58;;;;;;;101.23;50.67;;;5.90;99.90;;;;;;6219290;22;38205;-80
2024/03/05 05:53:25;;;;;;;101.60;49.90;;;6.00;99.90;;;;;;6220951;22;37597;-78
2024/03/05 05:55:51;;;;;;;107.27;50.27;;;6.00;99.90;;;;;;6245754;22;39270;-78
2024/03/05 05:58:17;;;;;;;129.67;56.30;;;6.00;99.90;;;;;;6215499;22;40000;-79
2024/03/05 06:00:44;;;;;;;95.27;48.00;;;6.00;99.90;;;;;;6217817;22;39265;-80
2024/03/05 06:03:11;;;;;;;109.87;51.97;;;6.00;99.90;;;;;;6224420;22;38304;-78
2024/03/05 06:05:38;;;;;;;105.17;49.67;;;6.00;99.90;;;;;;6224235;22;38990;-79
2024/03/05 06:08:10;;;;;;;107.60;50.17;;;6.10;99.90;;;;;;6217386;22;39558;-78
2024/03/05 06:10:37;;;;;;;98.05;49.00;;;6.10;99.90;;;;;;6221518;22;38120;-80
2024/03/05 06:13:03;;;;;;;100.20;50.07;;;6.10;99.90;;;;;;6250221;22;36825;-80
2024/03/05 06:15:30;;;;;;;99.87;49.00;;;6.20;99.90;;;;;;6228636;22;37843;-80
2024/03/05 06:17:57;;;;;;;94.40;50.73;;;6.20;99.90;;;;;;6231088;22;38842;-80
2024/03/05 06:20:24;;;;;;;93.20;48.67;;;6.10;99.90;;;;;;6228938;22;38622;-80
2024/03/05 06:22:50;;;;;;;108.57;52.20;;;6.10;99.90;;;;;;6232350;22;36669;-80
2024/03/05 06:25:17;;;;;;;106.47;52.77;;;6.10;99.90;;;;;;6238003;22;37471;-79
2024/03/05 06:27:47;;;;;;;118.10;56.93;;;6.20;99.90;;;;;;6237288;22;38991;-80
2024/03/05 06:30:21;;;;;;;115.33;54.97;;;6.30;99.90;;;;;;6232060;22;39084;-80
2024/03/05 06:32:48;;;;;;;120.47;56.50;;;6.30;99.90;;;;;;6258130;22;36621;-80
2024/03/05 06:35:24;;;;;;;110.03;56.10;;;6.30;99.90;;;;;;6232042;22;37679;-80
2024/03/05 06:37:51;;;;;;;114.87;57.83;;;6.30;99.90;;;;;;6260663;22;37549;-79
2024/03/05 06:40:22;;;;;;;98.00;53.20;;;6.30;99.90;;;;;;6242309;22;38118;-81
2024/03/05 06:42:52;;;;;;;111.97;54.97;;;6.30;99.90;;;;;;6232147;22;37538;-80
2024/03/05 06:45:29;;;;;;;99.30;53.93;;;6.40;99.90;;;;;;6220445;22;38269;-79
2024/03/05 06:47:56;;;;;;;102.70;55.93;;;6.40;99.90;;;;;;6250528;22;39333;-79
2024/03/05 06:50:52;;;;;;;106.83;54.57;;;6.30;99.90;;;;;;6219552;22;39421;-80
2024/03/05 06:58:47;;;;;;;97.97;52.60;;;6.30;99.90;;;;;;6227659;22;49782;-79
2024/03/05 07:01:19;;;;;;;95.80;53.77;;;6.30;99.90;;;;;;6229242;22;38284;-79
2024/03/05 07:03:48;;;;;;;122.32;56.08;;;6.40;99.90;;;;;;6258374;22;36588;-80
2024/03/05 07:06:15;;;;;;;96.67;53.13;;;6.40;99.90;;;;;;6232540;22;38000;-79
2024/03/05 07:08:43;;;;;;;99.53;54.83;;;6.40;99.90;;;;;;6255520;22;38803;-78
2024/03/05 07:11:11;;;;;;;104.83;57.10;;;6.40;99.90;;;;;;6228911;22;38406;-79
2024/03/05 07:13:38;;;;;;;90.83;53.20;;;6.40;99.90;;;;;;6226099;22;36978;-79
2024/03/05 07:16:07;;;;;;;101.60;54.93;;;6.40;99.90;;;;;;6233016;22;39097;-80
2024/03/05 07:18:36;;;;;;;97.10;54.83;;;6.40;99.90;;;;;;6239487;22;38027;-79
2024/03/05 07:21:04;;;;;;;100.70;54.40;;;6.40;99.90;;;;;;6228733;22;37207;-80
2024/03/05 07:23:30;;;;;;;103.93;55.73;;;6.40;99.90;;;;;;6228559;22;38364;-79
2024/03/05 07:25:57;;;;;;;108.20;54.20;;;6.50;99.90;;;;;;6230999;22;38985;-80
2024/03/05 07:28:26;;;;;;;105.10;54.63;;;6.50;99.90;;;;;;6237716;22;37450;-80
2024/03/05 07:30:52;;;;;;;95.07;54.07;;;6.50;99.90;;;;;;6237555;22;38307;-80
2024/03/05 07:33:19;;;;;;;129.30;63.67;;;6.50;99.90;;;;;;6232643;22;36732;-79
2024/03/05 07:35:46;;;;;;;101.17;54.87;;;6.50;99.90;;;;;;6239999;22;39324;-80
2024/03/05 07:38:14;;;;;;;88.80;52.10;;;6.50;99.90;;;;;;6233735;22;37799;-78
2024/03/05 07:40:41;;;;;;;97.43;53.47;;;6.40;99.90;;;;;;6226723;22;37339;-79
2024/03/05 07:43:08;;;;;;;92.37;52.63;;;6.40;99.90;;;;;;6218184;22;38154;-79
2024/03/05 07:45:35;;;;;;;114.93;57.17;;;6.40;99.90;;;;;;6216804;22;38848;-79
2024/03/05 07:48:01;;;;;;;93.10;51.10;;;6.40;99.90;;;;;;6221147;22;38747;-79
2024/03/05 07:50:31;;;;;;;89.10;51.87;;;6.40;99.90;;;;;;6219070;22;48634;-80
2024/03/05 07:52:57;;;;;;;92.13;52.67;;;6.40;99.90;;;;;;6220267;22;36341;-80
2024/03/05 07:55:25;;;;;;;100.47;54.90;;;6.50;99.90;;;;;;6225028;22;38388;-79
2024/03/05 07:57:58;;;;;;;112.90;60.17;;;6.50;99.90;;;;;;6223839;22;39408;-79
2024/03/05 08:00:25;;;;;;;86.03;52.30;;;6.50;99.90;;;;;;6223957;22;38191;-79
2024/03/05 08:02:55;;;;;;;89.07;53.03;;;6.60;99.90;;;;;;6223674;22;36996;-80
2024/03/05 08:05:22;;;;;;;102.83;56.43;;;6.60;99.90;;;;;;6221699;22;38196;-79
2024/03/05 08:07:49;;;;;;;83.43;50.20;;;6.60;99.90;;;;;;6227479;22;37709;-79
2024/03/05 08:10:18;;;;;;;97.27;53.17;;;6.60;99.90;;;;;;6224524;22;38541;-80
2024/03/05 08:12:49;;;;;;;86.10;51.10;;;6.60;99.90;;;;;;6224920;22;37201;-79
2024/03/05 08:15:16;;;;;;;96.10;52.30;;;6.60;99.90;;;;;;6221113;22;37750;-79
2024/03/05 08:17:47;;;;;;;91.17;53.87;;;6.70;99.90;;;;;;6252715;22;37260;-79
2024/03/05 08:20:25;;;;;;;97.40;55.43;;;6.80;99.90;;;;;;6227668;22;37265;-79
2024/03/05 08:22:52;;;;;;;91.43;53.63;;;6.90;99.90;;;;;;6224900;22;37837;-79
2024/03/05 08:25:19;;;;;;;87.60;53.33;;;7.00;99.90;;;;;;6224549;22;39288;-79
2024/03/05 08:27:47;;;;;;;93.10;55.77;;;7.00;99.90;;;;;;6225710;22;38208;-79
2024/03/05 08:30:21;;;;;;;93.43;53.70;;;7.10;99.90;;;;;;6224769;22;37483;-79
2024/03/05 08:32:48;;;;;;;87.57;54.27;;;7.10;99.90;;;;;;6226975;22;37852;-78
2024/03/05 08:35:15;;;;;;;80.17;51.53;;;7.20;99.90;;;;;;6247248;22;38878;-79
2024/03/05 08:37:46;;;;;;;75.77;50.10;;;7.20;99.90;;;;;;6224242;22;38287;-79
2024/03/05 08:40:15;;;;;;;85.70;50.23;;;7.20;99.90;;;;;;6225637;22;38283;-79
2024/03/05 08:42:45;;;;;;;83.47;51.03;;;7.20;99.90;;;;;;6221780;22;36731;-80
2024/03/05 08:45:16;;;;;;;77.80;50.30;;;7.20;99.90;;;;;;6222206;22;38918;-80
2024/03/05 08:47:44;;;;;;;71.37;48.87;;;7.40;99.90;;;;;;6224675;22;37559;-80
2024/03/05 08:50:11;;;;;;;72.33;48.47;;;7.30;99.90;;;;;;6225052;22;36854;-80
2024/03/05 08:52:38;;;;;;;74.97;49.93;;;7.30;99.90;;;;;;6223907;22;37524;-79
2024/03/05 08:55:11;;;;;;;66.10;45.73;;;7.30;99.90;;;;;;6224014;22;38020;-80
2024/03/05 08:57:37;;;;;;;;;;;7.30;99.90;;;;;;6252250;22;38747;-80
2024/03/05 09:00:04;;;;;;;61.87;41.23;;;7.40;99.90;;;;;;6224328;22;39032;-79
2024/03/05 09:02:31;;;;;;;58.57;43.37;;;7.40;99.90;;;;;;6248087;22;35353;-79
2024/03/05 09:04:57;;;;;;;65.20;43.77;;;7.50;99.90;;;;;;6248857;22;39384;-79
2024/03/05 09:07:23;;;;;;;56.37;39.60;;;7.60;99.90;;;;;;6223143;22;38377;-79
2024/03/05 09:09:50;;;;;;;58.00;41.73;;;7.60;99.90;;;;;;6223254;22;37218;-80
2024/03/05 09:12:16;;;;;;;49.63;36.13;;;7.70;99.90;;;;;;6223343;22;37991;-79
2024/03/05 09:14:42;;;;;;;50.47;36.83;;;7.70;99.90;;;;;;6255357;22;38258;-79
2024/03/05 09:17:12;;;;;;;52.00;37.23;;;7.70;99.90;;;;;;6232087;22;37520;-79
2024/03/05 09:19:38;;;;;;;43.80;33.00;;;7.70;99.90;;;;;;6222751;22;38785;-78
2024/03/05 09:22:05;;;;;;;41.47;31.10;;;7.80;99.90;;;;;;6246932;22;37658;-80
2024/03/05 09:24:32;;;;;;;49.73;32.23;;;7.80;99.90;;;;;;6223148;22;39176;-78
2024/03/05 09:27:03;;;;;;;35.33;28.27;;;7.90;99.90;;;;;;6222382;22;38236;-79
2024/03/05 09:29:30;;;;;;;35.08;27.52;;;7.80;99.90;;;;;;6218624;22;46867;-78
2024/03/05 09:31:56;;;;;;;36.70;25.10;;;7.90;99.90;;;;;;6220267;22;36334;-77
2024/03/05 09:34:22;;;;;;;29.57;23.30;;;7.90;99.90;;;;;;6221862;22;39327;-79
2024/03/05 09:36:49;;;;;;;30.97;23.00;;;7.90;96.10;;;;;;6221281;22;39123;-79
2024/03/05 09:39:18;;;;;;;31.43;23.23;;;8.00;88.00;;;;;;6222972;22;38398;-80
2024/03/05 09:41:45;;;;;;;32.43;20.60;;;8.10;90.00;;;;;;6221677;22;37784;-79
2024/03/05 09:44:12;;;;;;;23.63;19.93;;;8.10;77.60;;;;;;6219963;22;38061;-78
2024/03/05 09:46:39;;;;;;;30.80;21.80;;;8.20;69.70;;;;;;6218898;22;40326;-79
2024/03/05 09:49:12;;;;;;;27.67;22.43;;;8.30;67.40;;;;;;6219025;22;37672;-78
2024/03/05 09:51:39;;;;;;;25.53;20.87;;;8.50;81.40;;;;;;6219821;22;37730;-79
2024/03/05 09:54:10;;;;;;;31.08;21.10;;;8.60;70.20;;;;;;6245206;22;37735;-78
2024/03/05 09:56:45;;;;;;;28.17;20.70;;;8.70;64.60;;;;;;6222237;22;37082;-79
2024/03/05 09:59:14;;;;;;;24.27;18.53;;;8.50;55.90;;;;;;6223300;22;38288;-78
2024/03/05 10:01:43;;;;;;;25.90;19.33;;;8.40;66.90;;;;;;6222422;22;37676;-78
2024/03/05 10:04:17;;;;;;;27.40;18.97;;;8.50;73.90;;;;;;6219600;22;37966;-79
2024/03/05 10:06:50;;;;;;;24.90;18.53;;;8.60;59.90;;;;;;6219425;22;38675;-78
2024/03/05 10:09:16;;;;;;;;;;;8.90;75.50;;;;;;6222894;22;38145;-79
2024/03/05 10:11:43;;;;;;;31.47;18.03;;;9.10;71.50;;;;;;6228238;22;36654;-79
2024/03/05 10:14:10;;;;;;;22.67;18.00;;;9.00;30.10;;;;;;6223346;22;37930;-77
2024/03/05 10:16:38;;;;;;;25.77;18.50;;;9.00;24.60;;;;;;6247897;22;38374;-78
2024/03/05 10:19:17;;;;;;;23.17;16.50;;;8.90;26.20;;;;;;6224235;22;39364;-79
2024/03/05 10:21:47;;;;;;;21.73;16.07;;;8.90;28.00;;;;;;6228045;22;36850;-80
2024/03/05 10:24:14;;;;;;;20.97;16.20;;;9.00;35.30;;;;;;6272270;22;38469;-80
2024/03/05 10:26:41;;;;;;;17.40;14.80;;;9.10;39.20;;;;;;6245968;22;38875;-81
2024/03/05 10:29:09;;;;;;;17.00;14.30;;;9.00;29.40;;;;;;6258007;22;38677;-81
2024/03/05 10:31:42;;;;;;;18.33;13.73;;;9.10;23.00;;;;;;6247061;22;37931;-79
2024/03/05 10:34:18;;;;;;;22.42;14.68;;;9.00;28.80;;;;;;6245193;22;39035;-80
2024/03/05 10:36:53;;;;;;;19.13;13.93;;;8.90;28.70;;;;;;6247041;22;38528;-79
2024/03/05 10:39:22;;;;;;;17.63;12.93;;;8.90;35.20;;;;;;6232133;22;38492;-79
2024/03/05 10:44:35;;;;;;;17.70;12.77;;;8.80;13.80;;;;;;6299008;22;20000;-79
2024/03/05 10:47:03;;;;;;;17.43;13.00;;;8.70;18.30;;;;;;6248317;22;39487;-80
2024/03/05 10:54:45;;;;;;;13.90;10.83;;;8.60;34.40;;;;;;6220884;22;20088;-78
2024/03/05 11:05:06;;;;;;;19.53;12.03;;;8.50;38.00;;;;;;6250560;22;19908;-78
2024/03/05 11:07:36;;;;;;;16.13;11.97;;;8.50;57.80;;;;;;6305358;22;48521;-79
2024/03/05 11:10:12;;;;;;;18.33;12.43;;;8.50;63.00;;;;;;6308938;22;38434;-79
2024/03/05 11:12:40;;;;;;;14.57;11.73;;;8.40;74.80;;;;;;6307973;22;49169;-80
2024/03/05 11:15:12;;;;;;;19.93;13.17;;;8.40;84.00;;;;;;6264897;22;40115;-79
2024/03/05 11:17:42;;;;;;;21.10;12.00;;;8.50;97.10;;;;;;6309407;22;39861;-79
2024/03/05 11:20:12;;;;;;;17.77;12.70;;;8.70;94.60;;;;;;6306893;22;37977;-78
2024/03/05 11:22:45;;;;;;;17.77;12.00;;;8.60;96.00;;;;;;6308683;22;37531;-81
2024/03/05 11:25:33;;;;;;;16.20;11.43;;;8.60;95.80;;;;;;6306082;22;41312;-80
2024/03/05 11:41:30;;;;;;;16.20;10.27;;;8.80;70.40;;;;;;6280197;22;20008;-79
2024/03/05 11:49:09;;;;;;;14.50;10.57;;;8.80;88.40;;;;;;6220763;22;20027;-79
2024/03/05 11:57:16;;;;;;;14.13;10.10;;;8.70;81.40;;;;;;6304815;22;20102;-79
2024/03/05 11:59:43;;;;;;;15.63;10.70;;;8.80;91.90;;;;;;6306949;22;38403;-79
2024/03/05 12:02:13;;;;;;;12.93;9.63;;;8.80;95.30;;;;;;6305883;22;38404;-79
2024/03/05 12:04:50;;;;;;;11.23;9.57;;;8.80;91.20;;;;;;6307111;22;37754;-80
2024/03/05 12:07:17;;;;;;;13.00;9.30;;;8.90;95.30;;;;;;6308790;22;41098;-79
2024/03/05 12:09:55;;;;;;;15.50;9.73;;;9.00;99.40;;;;;;6308615;22;38274;-80
2024/03/05 12:12:23;;;;;;;11.90;8.73;;;9.10;93.60;;;;;;6304606;22;37291;-79
2024/03/05 12:14:54;;;;;;;12.47;8.40;;;9.20;64.80;;;;;;6307208;22;37424;-80
2024/03/05 12:17:21;;;;;;;12.90;8.90;;;9.30;79.70;;;;;;6305355;22;38851;-79
2024/03/05 12:20:29;;;;;;;13.63;9.47;;;9.50;90.40;;;;;;6306923;22;38708;-79
2024/03/05 12:23:08;;;;;;;12.07;8.82;;;9.50;80.40;;;;;;6307858;22;48373;-79
2024/03/05 12:25:36;;;;;;;13.13;8.80;;;9.90;87.20;;;;;;6307143;22;47323;-79
2024/03/05 12:28:02;;;;;;;12.30;8.48;;;10.00;73.10;;;;;;6308066;22;40385;-79
2024/03/05 12:30:33;;;;;;;12.35;8.10;;;10.00;38.20;;;;;;6306540;22;38768;-79
2024/03/05 12:33:00;;;;;;;10.82;7.28;;;10.00;45.60;;;;;;6306949;22;38252;-80
2024/03/05 12:35:27;;;;;;;9.85;6.68;;;10.00;45.50;;;;;;6306414;22;37335;-80
2024/03/05 12:37:57;;;;;;;8.15;6.20;;;9.80;26.10;;;;;;6306900;22;40192;-80
2024/03/05 12:40:28;;;;;;;8.30;6.37;;;9.50;37.10;;;;;;6305592;22;38578;-80
2024/03/05 12:43:08;;;;;;;9.63;6.15;;;9.50;48.80;;;;;;6298221;22;38425;-78
2024/03/05 12:45:35;;;;;;;10.38;6.53;;;9.60;59.10;;;;;;6305264;22;48670;-79
2024/03/05 12:48:10;;;;;;;8.50;5.85;;;9.70;88.40;;;;;;6305149;22;38990;-80
2024/03/05 12:50:39;;;;;;;7.47;5.63;;;9.80;90.50;;;;;;6306788;22;50398;-80
2024/03/05 12:53:09;;;;;;;10.20;6.13;;;9.90;78.30;;;;;;6304243;22;39639;-79
2024/03/05 12:55:36;;;;;;;8.50;5.55;;;9.90;53.10;;;;;;6304848;22;37364;-79
2024/03/05 12:58:11;;;;;;;7.68;5.28;;;9.80;34.40;;;;;;6308282;22;40403;-79
2024/03/05 13:00:38;;;;;;;8.75;5.32;;;9.80;45.70;;;;;;6305451;22;50150;-80
2024/03/05 13:03:06;;;;;;;10.30;5.47;;;9.90;46.70;;;;;;6302507;22;37750;-79
2024/03/05 13:05:33;;;;;;;8.23;5.82;;;10.00;37.10;;;;;;6302985;22;36180;-79
2024/03/05 13:07:59;;;;;;;9.65;5.78;;;9.90;38.40;;;;;;6302559;22;40170;-79
2024/03/05 13:10:26;;;;;;;10.68;6.45;;;10.00;46.90;;;;;;6283903;22;37633;-79
2024/03/05 13:12:52;;;;;;;7.35;5.32;;;9.90;34.00;;;;;;6286084;22;38133;-80
2024/03/05 13:15:19;;;;;;;9.00;5.80;;;9.90;60.50;;;;;;6291193;22;37942;-80
2024/03/05 13:17:46;;;;;;;8.38;5.78;;;9.90;56.90;;;;;;6284388;22;40125;-80
2024/03/05 13:20:22;;;;;;;8.63;6.00;;;10.00;61.70;;;;;;6288434;22;39355;-79
2024/03/05 13:22:56;;;;;;;9.30;6.22;;;10.00;47.40;;;;;;6299692;22;38816;-79
2024/03/05 13:25:26;;;;;;;6.82;4.82;;;10.00;56.50;;;;;;6303887;22;36741;-79
2024/03/05 13:27:52;;;;;;;6.68;4.78;;;10.00;58.20;;;;;;6307013;22;40403;-79
2024/03/05 13:30:19;;;;;;;10.05;5.22;;;10.00;54.10;;;;;;6304486;22;38381;-78
2024/03/05 13:32:47;;;;;;;8.13;4.78;;;10.10;61.30;;;;;;6301909;22;38260;-80